ROMMA est une association bénévole à but non lucratif. Votre soutien est indispensable : ADHERER à ROMMA ou FAIRE un DON

Montélimar - (26, Drôme)

Basse vallée du Rhône (88 m)   Longitude: 04° 45' E   Latitude: 44° 32' N Station partenaire n°164
 

Détail journalier du     <<     >>

Température Precipitation Humidité Pression Vent Dir Rafale Dir. rafale Ensol.
Heure (°C) (mm) (%) (hPa) (km/h) (km/h) (min)
01:00 17.4060101813N27NNO
02:00 17.2059101815N34N
03:00 16.3061101814N32NNE
04:00 16.1060101814N29N
05:00 15.7058101817N35N
06:00 15.1058101812N29N
07:00 14.406210183---18N
08:00 14.6061101813NO27NO
09:00 15.8056101911NO24NNO
10:00 18.204810198NO27NO
11:00 20.1040101815NE40N
12:00 20.9039101820NE42NE
13:00 21.9037101723N48N
14:00 22.7035101724N48N
15:00 23.7036101621N52NE
16:00 24.3038101617NE42NE
17:00 23.7037101619NNO39NNO
18:00 24.2037101617NO34NNO0
19:00 23.3038101616N32NNO0
20:00 21.8041101614N31N0
21:00 20.5047101611N29N0
22:00 19.7049101610N23N0
23:00 19.405010168NNO24NO0
minuit 18.7054101700---0

Graphique du 07-09-2019

 

Serveur OMMA